Aviation Digital Data Service (ADDS)

Output produced by METARs form (0300 UTC 23 October 2014)
found at http://aviationweather.gov/adds/metars/
 
KPVD 222338Z 2300/2324 01018G28KT 2SM +RA BR OVC008 
     FM231000 02011KT 2SM -RA BR OVC008 
     FM231500 02010G23KT 3SM -SHRA BR OVC010